.
WxDataArchive / Data Records for 2010-07-21
2010-07-20 July 2010 2010-07-22

Data Records for Wednesday, 21 July 2010

Time	Temp	Chill	HIndex	Humid	Dewpt	 Wind 	HiWind	WindDir	Rain 	Barom 
-----	----	-----	------	-----	-----	------	------	-------	-----	----- 
00:00	74.6	74.6	74.6	83	69.1	0	0	---	0.00	29.962 
00:05	74.4	74.4	74.4	83	68.9	0	0	---	0.00	29.962 
00:10	74.0	74.0	74.0	84	68.8	0	0	---	0.00	29.962 
00:15	73.9	73.9	73.9	84	68.7	0	0	---	0.00	29.959 
00:20	73.9	73.9	73.9	84	68.7	0	0	---	0.00	29.959 
00:25	73.7	73.7	73.7	84	68.6	0	0	---	0.00	29.959 
00:30	73.3	73.3	73.3	85	68.5	0	0	---	0.00	29.966 
00:35	73.2	73.2	73.2	85	68.4	0	0	---	0.00	29.966 
00:40	73.2	73.2	73.2	86	68.7	0	0	---	0.00	29.966 
00:45	73.0	73.0	73.0	86	68.6	0	0	---	0.00	29.966 
00:50	73.0	73.0	73.0	86	68.6	0	1	292	0.00	29.966 
00:55	72.8	72.8	72.8	86	68.4	0	0	---	0.00	29.966 
01:00	72.8	72.8	72.8	87	68.7	0	0	---	0.00	29.961 
01:05	72.7	72.7	72.7	87	68.6	0	0	---	0.00	29.961 
01:10	72.7	72.7	72.7	87	68.6	0	0	---	0.00	29.961 
01:15	72.5	72.5	72.5	87	68.4	0	0	---	0.00	29.959 
01:20	72.5	72.5	72.5	87	68.4	0	0	---	0.00	29.959 
01:25	72.5	72.5	72.5	87	68.4	0	0	---	0.00	29.959 
01:30	72.5	72.5	72.5	88	68.7	0	0	---	0.00	29.960 
01:35	72.3	72.3	72.3	88	68.5	0	0	---	0.00	29.960 
01:40	72.3	72.3	72.3	88	68.5	0	0	---	0.00	29.960 
01:45	72.3	72.3	72.3	88	68.5	0	0	---	0.00	29.955 
01:50	72.3	72.3	72.3	88	68.5	0	1	292	0.00	29.955 
01:55	72.1	72.1	72.1	88	68.3	0	0	---	0.00	29.955 
02:00	72.1	72.1	72.1	88	68.3	0	0	---	0.00	29.954 
02:05	72.0	72.0	72.0	88	68.2	0	0	---	0.00	29.954 
02:10	72.0	72.0	72.0	88	68.2	0	0	---	0.00	29.954 
02:15	71.8	71.8	71.8	88	68.0	0	0	---	0.00	29.951 
02:20	71.6	71.6	71.6	88	67.8	0	0	---	0.00	29.951 
02:25	71.6	71.6	71.6	89	68.2	0	0	---	0.00	29.951 
02:30	71.6	71.6	71.6	89	68.2	0	1	292	0.00	29.951 
02:35	71.5	71.5	71.5	89	68.1	0	0	---	0.00	29.951 
02:40	71.5	71.5	71.5	89	68.1	0	0	---	0.00	29.951 
02:45	71.3	71.3	71.3	89	67.9	0	0	---	0.00	29.953 
02:50	71.3	71.3	71.3	89	67.9	0	0	---	0.00	29.953 
02:55	71.3	71.3	71.3	90	68.2	0	1	292	0.00	29.953 
03:00	71.3	71.3	71.3	90	68.2	0	0	---	0.00	29.946 
03:05	71.3	71.3	71.3	90	68.2	0	0	---	0.00	29.946 
03:10	71.3	71.3	71.3	90	68.2	0	1	292	0.00	29.946 
03:15	71.3	71.3	71.3	90	68.2	0	0	---	0.00	29.944 
03:20	71.3	71.3	71.3	90	68.2	0	0	---	0.00	29.944 
03:25	71.1	71.1	71.1	90	68.0	0	0	---	0.00	29.944 
03:30	70.9	70.9	70.9	90	67.8	0	0	---	0.00	29.944 
03:35	70.9	70.9	70.9	90	67.8	0	0	---	0.00	29.944 
03:40	70.8	70.8	70.8	90	67.7	0	0	---	0.00	29.944 
03:45	70.8	70.8	70.8	91	68.0	0	0	---	0.00	29.944 
03:50	70.6	70.6	70.6	91	67.8	0	0	---	0.00	29.944 
03:55	70.6	70.6	70.6	91	67.8	0	0	---	0.00	29.944 
04:00	70.6	70.6	70.6	91	67.8	0	1	292	0.00	29.945 
04:05	70.6	70.6	70.6	92	68.2	0	1	292	0.00	29.945 
04:10	70.8	70.8	70.8	92	68.4	0	0	---	0.00	29.945 
04:15	70.6	70.6	70.6	92	68.2	0	0	---	0.00	29.948 
04:20	70.6	70.6	70.6	92	68.2	0	1	292	0.00	29.948 
04:25	70.6	70.6	70.6	92	68.2	0	1	292	0.00	29.948 
04:30	70.6	70.6	70.6	92	68.2	0	1	292	0.00	29.948 
04:35	70.6	70.6	70.6	92	68.2	0	0	---	0.00	29.948 
04:40	70.6	70.6	70.6	92	68.2	0	1	292	0.00	29.948 
04:45	70.6	70.6	70.6	92	68.2	0	1	292	0.00	29.960 
04:50	70.6	70.6	70.6	92	68.2	0	1	292	0.00	29.960 
04:55	70.6	70.6	70.6	92	68.2	0	1	292	0.00	29.960 
05:00	70.6	70.6	70.6	92	68.2	0	1	292	0.00	29.962 
05:05	70.8	70.8	70.8	92	68.4	0	1	292	0.00	29.962 
05:10	70.8	70.8	70.8	92	68.4	0	2	292	0.00	29.962 
05:15	70.9	70.9	70.9	92	68.5	0	1	292	0.00	29.962 
05:20	70.9	70.9	70.9	92	68.5	0	2	292	0.00	29.962 
05:25	70.9	70.9	70.9	92	68.5	0	1	292	0.00	29.962 
05:30	70.9	70.9	70.9	92	68.5	0	1	292	0.00	29.964 
05:35	70.8	70.8	70.8	92	68.4	0	2	292	0.00	29.964 
05:40	70.8	70.8	70.8	92	68.4	0	1	292	0.00	29.964 
05:45	70.6	70.6	70.6	92	68.2	0	1	292	0.00	29.967 
05:50	70.4	70.4	70.4	92	68.0	0	0	---	0.00	29.967 
05:55	70.4	70.4	70.4	92	68.0	0	1	292	0.00	29.967 
06:00	70.4	70.4	70.4	93	68.3	0	1	292	0.00	29.975 
06:05	70.3	70.3	70.3	93	68.2	0	2	292	0.00	29.975 
06:10	70.3	70.3	70.3	93	68.2	0	1	292	0.00	29.975 
06:15	70.3	70.3	70.3	93	68.2	0	1	292	0.00	29.975 
06:20	70.3	70.3	70.3	93	68.2	0	1	292	0.00	29.975 
06:25	70.3	70.3	70.3	93	68.2	0	2	292	0.00	29.975 
06:30	70.3	70.3	70.3	93	68.2	0	2	292	0.00	29.974 
06:35	70.3	70.3	70.3	93	68.2	0	2	292	0.00	29.974 
06:40	70.3	70.3	70.3	94	68.5	0	1	292	0.00	29.974 
06:45	70.1	70.1	70.1	94	68.3	0	1	292	0.00	29.973 
06:50	70.1	70.1	70.1	94	68.3	0	1	292	0.00	29.973 
06:55	70.3	70.3	70.3	94	68.5	0	2	292	0.00	29.973 
07:00	70.3	70.3	70.3	94	68.5	0	2	292	0.00	29.974 
07:05	70.3	70.3	70.3	94	68.5	1	4	292	0.00	29.974 
07:10	70.3	70.3	70.3	94	68.5	0	2	292	0.00	29.974 
07:15	70.4	70.4	70.4	94	68.6	1	4	315	0.00	29.975 
07:20	70.4	70.4	70.4	94	68.6	1	2	315	0.00	29.975 
07:25	70.4	70.4	70.4	94	68.6	1	2	315	0.00	29.975 
07:30	70.6	70.6	70.6	94	68.8	0	2	315	0.00	29.974 
07:35	70.8	70.8	70.8	94	69.0	0	2	315	0.00	29.974 
07:40	70.9	70.9	70.9	93	68.8	1	3	315	0.00	29.974 
07:45	71.1	71.1	71.1	93	69.0	1	2	315	0.00	29.976 
07:50	71.5	71.5	71.5	92	69.0	0	2	315	0.00	29.976 
07:55	71.8	71.8	71.8	92	69.3	0	1	315	0.00	29.976 
08:00	72.0	72.0	72.0	91	69.2	1	2	315	0.00	29.980 
08:05	72.5	72.5	72.5	91	69.7	0	2	315	0.00	29.980 
08:10	72.8	72.8	72.8	89	69.4	0	2	315	0.00	29.980 
08:15	73.2	73.2	73.2	88	69.4	0	1	315	0.00	29.980 
08:20	73.7	73.7	73.7	87	69.6	1	3	315	0.00	29.980 
08:25	74.0	74.0	74.0	89	70.5	0	2	315	0.00	29.980 
08:30	74.4	74.4	74.4	85	69.6	1	3	315	0.00	29.985 
08:35	74.7	74.7	74.7	85	69.9	1	3	315	0.00	29.985 
08:40	75.1	75.1	75.2	84	69.9	1	2	315	0.00	29.985 
08:45	75.6	75.6	76.0	84	70.4	0	2	315	0.00	29.979 
08:50	76.0	76.0	76.8	82	70.1	1	3	315	0.00	29.979 
08:55	76.5	76.5	77.7	81	70.2	1	4	270	0.00	29.979 
09:00	76.8	76.8	78.2	81	70.5	1	3	270	0.00	29.985 
09:05	77.2	77.2	78.9	80	70.5	1	3	270	0.00	29.985 
09:10	77.6	77.6	79.6	79	70.6	1	4	270	0.00	29.985 
09:15	77.6	77.6	79.6	79	70.6	1	3	315	0.00	29.988 
09:20	77.9	77.9	80.1	78	70.5	1	3	315	0.00	29.988 
09:25	77.9	77.9	80.1	77	70.1	2	4	270	0.00	29.988 
09:30	78.1	78.1	80.5	79	71.0	1	3	270	0.00	29.987 
09:35	78.1	78.1	80.4	77	70.3	1	2	270	0.00	29.987 
09:40	78.1	78.1	80.4	77	70.3	1	3	315	0.00	29.987 
09:45	78.3	78.3	80.8	78	70.9	1	3	315	0.00	29.981 
09:50	78.5	78.5	81.1	78	71.1	1	4	270	0.00	29.981 
09:55	78.8	78.8	81.6	77	71.0	1	3	315	0.00	29.981 
10:00	79.2	79.2	82.2	76	71.0	1	5	315	0.00	29.982 
10:05	79.2	79.2	82.2	76	71.0	1	2	315	0.00	29.982 
10:10	79.4	79.4	82.6	76	71.2	1	5	315	0.00	29.982 
10:15	79.8	79.8	83.2	75	71.1	1	4	315	0.00	29.984 
10:20	79.8	79.8	83.1	74	70.8	2	4	292	0.00	29.984 
10:25	79.9	79.9	83.4	75	71.2	1	3	292	0.00	29.984 
10:30	80.7	80.7	85.1	76	72.4	1	3	292	0.00	29.987 
10:35	80.7	80.7	84.7	74	71.6	1	3	338	0.00	29.987 
10:40	81.1	81.1	85.3	73	71.6	1	4	270	0.00	29.987 
10:45	81.1	81.1	85.2	72	71.2	1	3	338	0.00	29.991 
10:50	81.1	81.1	85.3	73	71.6	1	3	315	0.00	29.991 
10:55	81.1	81.1	85.3	73	71.6	1	3	315	0.00	29.991 
11:00	81.4	81.4	85.7	72	71.5	1	3	270	0.00	29.996 
11:05	81.8	81.8	86.3	71	71.5	1	4	292	0.00	29.996 
11:10	82.4	82.4	87.2	70	71.6	1	3	292	0.00	29.996 
11:15	82.2	82.2	87.0	71	71.8	1	2	292	0.00	30.000 
11:20	82.6	82.6	87.8	71	72.2	1	4	315	0.00	30.000 
11:25	83.2	83.2	88.0	67	71.1	1	4	270	0.00	30.000 
11:30	83.4	83.4	88.4	67	71.3	1	4	270	0.00	30.001 
11:35	83.4	83.4	88.6	68	71.7	1	3	315	0.00	30.001 
11:40	83.4	83.4	87.8	65	70.4	2	5	270	0.00	30.001 
11:45	83.6	83.6	88.5	66	71.0	2	4	270	0.00	30.003 
11:50	84.0	84.0	88.9	65	70.9	2	4	270	0.00	30.003 
11:55	84.1	84.1	88.8	64	70.6	2	4	270	0.00	30.003 
12:00	84.1	84.1	88.8	64	70.6	2	5	270	0.00	30.010 
12:05	84.1	84.1	88.8	64	70.6	1	3	270	0.00	30.010 
12:10	84.5	84.5	89.0	62	70.0	2	4	270	0.00	30.010 
12:15	84.3	84.3	88.3	61	69.4	3	5	292	0.00	30.008 
12:20	84.3	84.3	88.3	61	69.4	2	4	292	0.00	30.008 
12:25	84.5	84.5	88.7	61	69.5	2	5	270	0.00	30.008 
12:30	85.1	85.1	90.1	62	70.6	2	5	292	0.00	30.002 
12:35	85.3	85.3	90.5	62	70.8	1	5	292	0.00	30.002 
12:40	85.9	85.9	91.3	61	70.9	2	4	292	0.00	30.002 
12:45	86.3	86.3	90.6	57	69.2	3	5	270	0.00	30.002 
12:50	86.3	86.3	90.2	56	68.7	3	6	270	0.00	30.002 
12:55	86.5	86.5	91.0	57	69.4	2	6	270	0.00	30.002 
13:00	86.3	86.3	90.6	57	69.2	2	4	270	0.00	30.005 
13:05	85.9	85.9	90.2	58	69.4	1	4	292	0.00	30.005 
13:10	84.9	84.9	89.4	61	69.9	0	3	338	0.00	30.005 
13:15	84.9	84.9	89.1	60	69.4	1	2	338	0.00	30.011 
13:20	85.3	85.3	89.8	60	69.8	2	5	270	0.00	30.011 
13:25	86.1	86.1	90.6	58	69.6	2	4	270	0.00	30.011 
13:30	86.7	86.7	90.3	54	68.0	3	6	270	0.00	30.008 
13:35	87.0	87.0	90.1	52	67.2	3	9	270	0.00	30.008 
13:40	87.4	87.4	90.4	51	67.0	2	6	270	0.00	30.008 
13:45	87.8	87.8	91.4	52	67.9	2	4	270	0.00	30.007 
13:50	87.6	87.6	91.1	52	67.8	3	5	270	0.00	30.007 
13:55	87.2	87.2	90.4	52	67.4	2	4	270	0.00	30.007 
14:00	86.3	86.3	89.6	54	67.7	1	3	315	0.00	30.008 
14:05	86.7	86.7	90.3	54	68.0	1	3	315	0.00	30.008 
14:10	87.4	87.4	91.1	53	68.1	1	3	248	0.00	30.008 
14:15	87.8	87.8	91.1	51	67.4	2	6	270	0.00	30.003 
14:20	87.8	87.8	90.7	50	66.8	2	5	292	0.00	30.003 
14:25	87.6	87.6	90.0	49	66.0	2	4	338	0.00	30.003 
14:30	87.8	87.8	89.7	47	65.0	2	4	270	0.00	30.004 
14:35	88.2	88.2	90.3	47	65.4	2	4	292	0.00	30.004 
14:40	88.4	88.4	91.0	48	66.2	2	6	270	0.00	30.004 
14:45	88.6	88.6	91.0	47	65.7	2	4	338	0.00	30.000 
14:50	88.6	88.6	91.7	49	67.0	1	4	315	0.00	30.000 
14:55	88.4	88.4	89.3	43	63.0	3	6	292	0.00	30.000 
15:00	88.4	88.4	90.0	45	64.3	3	7	292	0.00	30.003 
15:05	88.0	88.0	90.3	48	65.8	2	5	292	0.00	30.003 
15:10	88.2	88.2	90.0	46	64.8	2	6	315	0.00	30.003 
15:15	88.4	88.4	90.3	46	64.9	2	5	270	0.00	30.004 
15:20	88.6	88.6	90.3	45	64.5	3	6	270	0.00	30.004 
15:25	88.8	88.8	90.2	44	64.0	2	5	270	0.00	30.004 
15:30	89.3	89.3	91.7	46	65.8	1	5	270	0.00	30.001 
15:35	89.5	89.5	90.3	41	62.6	3	6	270	0.00	30.001 
15:40	88.8	88.8	90.2	44	64.0	3	5	292	0.00	30.001 
15:45	88.2	88.2	89.3	44	63.5	2	6	292	0.00	30.004 
15:50	88.4	88.4	89.3	43	63.0	2	5	270	0.00	30.004 
15:55	89.0	89.0	90.5	44	64.2	2	5	270	0.00	30.004 
16:00	89.0	89.0	90.5	44	64.2	2	7	270	0.00	30.000 
16:05	89.3	89.3	90.6	43	63.8	2	4	270	0.00	30.000 
16:10	89.5	89.5	90.6	42	63.3	3	5	270	0.00	30.000 
16:15	89.3	89.3	90.3	42	63.2	2	6	270	0.00	30.000 
16:20	89.0	89.0	89.9	42	62.9	2	5	270	0.00	30.000 
16:25	89.0	89.0	90.2	43	63.6	2	6	270	0.00	30.000 
16:30	89.0	89.0	89.6	41	62.2	3	7	270	0.00	29.993 
16:35	88.6	88.6	89.0	41	61.8	2	6	315	0.00	29.993 
16:40	88.6	88.6	89.9	44	63.9	2	4	315	0.00	29.993 
16:45	88.8	88.8	89.6	42	62.7	3	8	270	0.00	29.989 
16:50	88.2	88.2	89.0	43	62.8	2	5	292	0.00	29.989 
16:55	88.2	88.2	89.0	43	62.8	2	4	270	0.00	29.989 
17:00	88.0	88.0	88.7	43	62.7	2	5	270	0.00	29.989 
17:05	88.0	88.0	88.7	43	62.7	3	5	270	0.00	29.989 
17:10	87.6	87.6	87.9	42	61.6	2	5	270	0.00	29.989 
17:15	88.0	88.0	89.0	44	63.3	2	5	292	0.00	29.990 
17:20	88.2	88.2	89.0	43	62.8	2	5	270	0.00	29.990 
17:25	88.4	88.4	89.6	44	63.7	2	9	248	0.00	29.990 
17:30	88.0	88.0	89.0	44	63.3	2	6	270	0.00	29.990 
17:35	87.6	87.6	88.8	45	63.6	2	5	292	0.00	29.990 
17:40	87.8	87.8	89.1	45	63.8	2	4	292	0.00	29.990 
17:45	87.8	87.8	88.5	43	62.5	4	9	270	0.00	29.992 
17:50	87.6	87.6	88.2	43	62.3	3	6	270	0.00	29.992 
17:55	87.4	87.4	87.6	42	61.5	3	7	270	0.00	29.992 
18:00	87.6	87.6	88.5	44	63.0	3	5	292	0.00	29.994 
18:05	87.2	87.2	87.9	44	62.6	2	4	270	0.00	29.994 
18:10	87.0	87.0	87.9	45	63.1	1	4	270	0.00	29.994 
18:15	86.7	86.7	87.8	46	63.4	1	4	292	0.00	29.998 
18:20	86.5	86.5	87.5	46	63.2	1	4	292	0.00	29.998 
18:25	86.5	86.5	87.5	46	63.2	2	4	292	0.00	29.998 
18:30	86.5	86.5	87.5	46	63.2	1	4	270	0.00	30.000 
18:35	86.3	86.3	87.5	47	63.7	1	4	270	0.00	30.000 
18:40	86.3	86.3	87.5	47	63.7	2	6	315	0.00	30.000 
18:45	85.9	85.9	86.4	45	62.1	1	5	315	0.00	30.004 
18:50	85.7	85.7	86.4	46	62.5	2	4	270	0.00	30.004 
18:55	85.5	85.5	86.2	46	62.3	2	4	270	0.00	30.004 
19:00	85.5	85.5	86.2	46	62.3	1	3	338	0.00	30.003 
19:05	85.5	85.5	86.4	47	62.9	0	3	270	0.00	30.003 
19:10	85.3	85.3	85.9	46	62.1	1	4	270	0.00	30.003 
19:15	85.1	85.1	85.7	46	62.0	2	4	292	0.00	30.004 
19:20	84.9	84.9	85.4	46	61.8	2	6	270	0.00	30.004 
19:25	84.9	84.9	85.4	46	61.8	1	4	270	0.00	30.004 
19:30	84.9	84.9	85.6	47	62.4	1	3	292	0.00	30.008 
19:35	84.9	84.9	85.6	47	62.4	1	3	292	0.00	30.008 
19:40	84.7	84.7	85.4	47	62.2	1	2	315	0.00	30.008 
19:45	84.5	84.5	85.3	48	62.6	1	3	315	0.00	30.007 
19:50	84.1	84.1	84.8	48	62.3	0	2	315	0.00	30.007 
19:55	84.1	84.1	85.0	49	62.8	0	1	315	0.00	30.007 
20:00	84.0	84.0	84.7	48	62.2	1	3	315	0.00	30.008 
20:05	84.0	84.0	84.7	48	62.2	1	2	315	0.00	30.008 
20:10	84.0	84.0	84.7	48	62.2	0	1	315	0.00	30.008 
20:15	84.0	84.0	84.5	47	61.6	1	3	315	0.00	30.006 
20:20	83.8	83.8	84.5	48	62.0	1	3	315	0.00	30.006 
20:25	83.8	83.8	84.7	49	62.6	0	1	315	0.00	30.006 
20:30	83.6	83.6	84.4	49	62.4	0	2	315	0.00	30.006 
20:35	83.2	83.2	84.1	50	62.6	0	1	315	0.00	30.006 
20:40	83.0	83.0	83.9	50	62.4	0	1	315	0.00	30.006 
20:45	83.0	83.0	84.1	51	63.0	0	1	315	0.00	30.008 
20:50	82.6	82.6	83.8	52	63.2	0	1	315	0.00	30.008 
20:55	82.4	82.4	83.7	53	63.5	0	1	315	0.00	30.008 
21:00	82.0	82.0	83.2	53	63.2	0	1	315	0.00	30.009 
21:05	81.6	81.6	82.9	54	63.3	0	1	315	0.00	30.009 
21:10	81.2	81.2	82.5	54	62.9	0	0	---	0.00	30.009 
21:15	81.1	81.1	82.5	55	63.4	0	0	---	0.00	30.015 
21:20	80.5	80.5	81.9	56	63.3	0	0	---	0.00	30.015 
21:25	80.1	80.1	81.6	57	63.5	0	0	---	0.00	30.015 
21:30	79.9	79.9	81.4	57	63.3	0	0	---	0.00	30.019 
21:35	79.6	79.6	81.2	58	63.5	0	0	---	0.00	30.019 
21:40	79.2	79.2	80.7	58	63.1	0	0	---	0.00	30.019 
21:45	78.8	78.8	80.4	59	63.2	0	0	---	0.00	30.020 
21:50	78.5	78.5	80.2	60	63.4	0	0	---	0.00	30.020 
21:55	78.1	78.1	79.8	61	63.5	0	0	---	0.00	30.020 
22:00	77.9	77.9	79.6	62	63.8	0	0	---	0.00	30.026 
22:05	77.6	77.6	79.4	64	64.4	0	0	---	0.00	30.026 
22:10	77.2	77.2	79.0	65	64.5	0	0	---	0.00	30.026 
22:15	76.8	76.8	78.6	65	64.1	0	0	---	0.00	30.031 
22:20	76.7	76.7	78.5	66	64.5	0	0	---	0.00	30.031 
22:25	76.5	76.5	78.3	67	64.7	0	0	---	0.00	30.031 
22:30	76.1	76.1	77.8	68	64.8	0	0	---	0.00	30.033 
22:35	76.0	76.0	77.7	69	65.1	0	0	---	0.00	30.033 
22:40	75.8	75.8	77.5	69	64.9	0	0	---	0.00	30.033 
22:45	75.6	75.6	77.2	70	65.1	0	0	---	0.00	30.035 
22:50	75.4	75.4	77.0	71	65.3	0	0	---	0.00	30.035 
22:55	75.3	75.3	76.9	71	65.2	0	0	---	0.00	30.035 
23:00	75.1	75.1	76.6	72	65.4	0	0	---	0.00	30.034 
23:05	74.9	74.9	74.9	73	65.6	0	0	---	0.00	30.034 
23:10	74.7	74.7	74.7	73	65.5	0	0	---	0.00	30.034 
23:15	74.6	74.6	74.6	74	65.7	0	0	---	0.00	30.033 
23:20	74.4	74.4	74.4	74	65.6	0	0	---	0.00	30.033 
23:25	74.4	74.4	74.4	75	65.9	0	0	---	0.00	30.033 
23:30	74.2	74.2	74.2	76	66.1	0	0	---	0.00	30.034 
23:35	74.0	74.0	74.0	77	66.3	0	0	---	0.00	30.034 
23:40	73.9	73.9	73.9	77	66.2	0	0	---	0.00	30.034 
23:45	73.7	73.7	73.7	78	66.4	0	0	---	0.00	30.036 
23:50	73.5	73.5	73.5	78	66.2	0	0	---	0.00	30.036 
23:55	73.3	73.3	73.3	80	66.7	0	0	---	0.00	30.036 

CoCoRaHS
IN-AL-39
A2 Web Hosting
Creative Commons License
GoDaddy
search engine by freefind advanced

loaded 2018-11-20 06:46:10 • last modified 2010-11-18 10:43:29
Privacy PolicyDisclaimer
• wx.awcolley.com is powered by PmWiki v.2002016 •
• all content (unless otherwise noted) © 2018 A W Colley